Time;durP1;ratioP1;P1;durP2;ratioP2;P2;SDS_P1;SDS_P2;PMS_P1;PMS_P2;Temp;Humidity;BMP_temperature;BMP_pressure;BME280_temperature;BME280_humidity;BME280_pressure;Samples;Min_cycle;Max_cycle;Signal;HPM_P1;HPM_P2
2024/01/10 00:00:17;;;;;;;;;;;-1.50;96.80;;;;;;5023954;28;19908;-62
2024/01/10 00:02:43;;;;;;;;;;;-1.50;96.90;;;;;;5024608;28;19916;-62
2024/01/10 00:05:08;;;;;;;;;;;-1.40;96.80;;;;;;5024278;28;19936;-62
2024/01/10 00:07:36;;;;;;;;;;;-1.50;96.80;;;;;;5024262;28;20000;-62
2024/01/10 00:10:02;;;;;;;;;;;-1.50;96.80;;;;;;5024303;28;20566;-62
2024/01/10 00:12:33;;;;;;;;;;;-1.50;96.80;;;;;;5032379;28;20011;-62
2024/01/10 00:14:58;;;;;;;;;;;-1.50;96.80;;;;;;5032761;28;19937;-62
2024/01/10 00:17:24;;;;;;;;;;;-1.50;96.80;;;;;;5027415;28;20004;-62
2024/01/10 00:19:49;;;;;;;;;;;-1.50;96.80;;;;;;5032159;28;19935;-62
2024/01/10 00:22:15;;;;;;;;;;;-1.50;96.70;;;;;;5023806;28;20615;-63
2024/01/10 00:24:40;;;;;;;;;;;-1.50;96.70;;;;;;5024108;28;20008;-62
2024/01/10 00:27:06;;;;;;;;;;;-1.50;96.70;;;;;;5023265;28;19913;-62
2024/01/10 00:29:31;;;;;;;;;;;-1.50;96.70;;;;;;5024358;28;19928;-62
2024/01/10 00:31:59;;;;;;;;;;;-1.50;96.70;;;;;;5023303;28;19943;-62
2024/01/10 00:34:24;;;;;;;;;;;-1.50;96.70;;;;;;5001747;28;19970;-62
2024/01/10 00:36:50;;;;;;;;;;;-1.50;96.60;;;;;;5036220;28;19925;-62
2024/01/10 00:39:15;;;;;;;;;;;-1.50;96.60;;;;;;5033629;28;19912;-62
2024/01/10 00:41:41;;;;;;;;;;;-1.50;96.70;;;;;;5043496;28;20382;-62
2024/01/10 00:44:06;;;;;;;;;;;-1.50;96.70;;;;;;5026009;28;19913;-62
2024/01/10 00:46:32;;;;;;;;;;;-1.50;96.70;;;;;;5024362;28;19913;-62
2024/01/10 00:48:57;;;;;;;;;;;-1.50;96.70;;;;;;5024301;28;19993;-62
2024/01/10 00:51:23;;;;;;;;;;;-1.50;96.60;;;;;;5023327;28;20564;-62
2024/01/10 00:53:48;;;;;;;;;;;-1.50;96.70;;;;;;5024084;28;20468;-62
2024/01/10 00:56:14;;;;;;;;;;;-1.50;96.60;;;;;;5023879;28;19945;-62
2024/01/10 00:58:39;;;;;;;;;;;-1.50;96.60;;;;;;5037394;28;19913;-62
2024/01/10 01:01:05;;;;;;;;;;;-1.50;96.60;;;;;;5025873;28;19952;-62
2024/01/10 01:03:30;;;;;;;;;;;-1.50;96.60;;;;;;5023732;28;19913;-62
2024/01/10 01:05:56;;;;;;;;;;;-1.50;96.60;;;;;;5022847;28;19913;-62
2024/01/10 01:08:21;;;;;;;;;;;-1.50;96.50;;;;;;5025564;28;19920;-62
2024/01/10 01:10:47;;;;;;;;;;;-1.60;96.50;;;;;;5028124;28;20412;-62
2024/01/10 01:13:12;;;;;;;;;;;-1.50;96.50;;;;;;5031041;28;19936;-62
2024/01/10 01:15:38;;;;;;;;;;;-1.50;96.50;;;;;;5023270;28;19951;-62
2024/01/10 01:18:03;;;;;;;;;;;-1.50;96.50;;;;;;5022895;28;20016;-62
2024/01/10 01:20:29;;;;;;;;;;;-1.50;96.50;;;;;;5037570;27;19914;-62
2024/01/10 01:22:54;;;;;;;;;;;-1.60;96.50;;;;;;5005036;28;20215;-62
2024/01/10 01:25:20;;;;;;;;;;;-1.60;96.50;;;;;;5022281;28;19917;-63
2024/01/10 01:27:46;;;;;;;;;;;-1.60;96.40;;;;;;5030760;28;20004;-62
2024/01/10 01:30:11;;;;;;;;;;;-1.60;96.40;;;;;;5036706;28;20027;-62
2024/01/10 01:32:37;;;;;;;;;;;-1.50;96.40;;;;;;5030294;28;20384;-62
2024/01/10 01:35:03;;;;;;;;;;;-1.60;96.40;;;;;;5021863;28;20421;-62
2024/01/10 01:37:29;;;;;;;;;;;-1.60;96.40;;;;;;5022198;28;19913;-62
2024/01/10 01:39:54;;;;;;;;;;;-1.60;96.40;;;;;;5021196;28;19989;-62
2024/01/10 01:42:20;;;;;;;;;;;-1.60;96.40;;;;;;5022368;28;19917;-62
2024/01/10 01:44:45;;;;;;;;;;;-1.60;96.40;;;;;;5022649;28;19913;-62
2024/01/10 01:47:11;;;;;;;;;;;-1.60;96.30;;;;;;5022186;28;20043;-62
2024/01/10 01:49:36;;;;;;;;;;;-1.60;96.30;;;;;;5022237;28;19913;-62
2024/01/10 01:52:02;;;;;;;;;;;-1.60;96.20;;;;;;5036977;28;19913;-62
2024/01/10 01:54:28;;;;;;;;;;;-1.60;96.50;;;;;;5030700;28;19909;-62
2024/01/10 01:56:53;;;;;;;;;;;-1.60;96.20;;;;;;5022374;28;19928;-62
2024/01/10 01:59:19;;;;;;;;;;;-1.60;96.30;;;;;;5033000;28;19919;-62
2024/01/10 02:01:45;;;;;;;;;;;-1.60;96.20;;;;;;5025210;28;20047;-62
2024/01/10 02:04:11;;;;;;;;;;;-1.60;96.20;;;;;;5022376;28;20102;-62
2024/01/10 02:06:36;;;;;;;;;;;-1.60;96.20;;;;;;5022581;28;19913;-62
2024/01/10 02:09:03;;;;;;;;;;;-1.70;96.10;;;;;;5037713;28;19966;-62
2024/01/10 02:11:29;;;;;;;;;;;-1.70;96.20;;;;;;5030276;28;19981;-62
2024/01/10 02:13:55;;;;;;;;;;;-1.70;96.10;;;;;;5004438;28;20373;-62
2024/01/10 02:16:24;;;;;;;;;;;-1.70;96.20;;;;;;5027808;28;19928;-63
2024/01/10 02:18:50;;;;;;;;;;;-1.70;96.20;;;;;;5035665;28;19978;-62
2024/01/10 02:21:16;;;;;;;;;;;-1.70;96.20;;;;;;5032190;28;19913;-62
2024/01/10 02:23:42;;;;;;;;;;;-1.70;96.10;;;;;;5042227;28;19939;-62
2024/01/10 02:26:07;;;;;;;;;;;-1.70;96.10;;;;;;5024656;28;19913;-62
2024/01/10 02:28:33;;;;;;;;;;;-1.70;96.20;;;;;;5022391;28;19913;-62
2024/01/10 02:30:59;;;;;;;;;;;-1.70;96.10;;;;;;5022043;28;20273;-62
2024/01/10 02:33:24;;;;;;;;;;;-1.70;96.10;;;;;;5021643;28;19913;-62
2024/01/10 02:35:50;;;;;;;;;;;-1.70;96.10;;;;;;5022097;28;19914;-62
2024/01/10 02:38:15;;;;;;;;;;;-1.70;96.10;;;;;;5023872;28;19917;-62
2024/01/10 02:40:41;;;;;;;;;;;-1.70;96.10;;;;;;5028114;28;19926;-62
2024/01/10 02:43:07;;;;;;;;;;;-1.80;96.10;;;;;;5004064;28;20056;-62
2024/01/10 02:45:33;;;;;;;;;;;-1.80;96.00;;;;;;5021987;28;19917;-62
2024/01/10 02:47:59;;;;;;;;;;;-1.80;96.00;;;;;;5022131;28;19913;-62
2024/01/10 02:50:24;;;;;;;;;;;-1.80;96.00;;;;;;5013739;28;19920;-62
2024/01/10 02:52:50;;;;;;;;;;;-1.80;96.00;;;;;;5036897;27;19913;-62
2024/01/10 02:55:15;;;;;;;;;;;-1.80;96.00;;;;;;5016664;28;19920;-62
2024/01/10 02:57:41;;;;;;;;;;;-1.80;96.00;;;;;;5036959;27;19940;-62
2024/01/10 03:00:07;;;;;;;;;;;-1.80;96.00;;;;;;5021305;28;19933;-62
2024/01/10 03:02:33;;;;;;;;;;;-1.80;96.00;;;;;;5019246;28;19909;-62
2024/01/10 03:04:58;;;;;;;;;;;-1.80;96.00;;;;;;5022044;28;19913;-62
2024/01/10 03:07:27;;;;;;;;;;;-1.80;96.00;;;;;;5014801;28;19919;-62
2024/01/10 03:09:52;;;;;;;;;;;-1.80;95.90;;;;;;5032303;28;19920;-62
2024/01/10 03:12:18;;;;;;;;;;;-1.80;95.90;;;;;;5033114;28;19909;-62
2024/01/10 03:14:43;;;;;;;;;;;-1.90;95.90;;;;;;5027488;28;20044;-62
2024/01/10 03:17:09;;;;;;;;;;;-1.90;95.90;;;;;;5020956;28;20534;-62
2024/01/10 03:19:37;;;;;;;;;;;-1.90;95.90;;;;;;5021581;28;19913;-62
2024/01/10 03:22:02;;;;;;;;;;;-1.90;95.90;;;;;;5020826;28;20425;-62
2024/01/10 03:24:28;;;;;;;;;;;-1.90;95.90;;;;;;5021231;28;20039;-62
2024/01/10 03:26:53;;;;;;;;;;;-1.80;95.90;;;;;;5021107;28;20315;-62
2024/01/10 03:29:19;;;;;;;;;;;-1.90;95.90;;;;;;5029592;28;20385;-63
2024/01/10 03:31:44;;;;;;;;;;;-1.90;95.90;;;;;;5027275;28;19972;-62
2024/01/10 03:34:10;;;;;;;;;;;-1.90;95.90;;;;;;5033359;28;19952;-62
2024/01/10 03:36:35;;;;;;;;;;;-1.90;95.80;;;;;;5041606;28;19923;-62
2024/01/10 03:39:01;;;;;;;;;;;-1.90;95.80;;;;;;5041855;28;19916;-62
2024/01/10 03:41:26;;;;;;;;;;;-1.90;95.80;;;;;;5011734;28;20408;-62
2024/01/10 03:43:52;;;;;;;;;;;-1.90;95.90;;;;;;5036993;28;20270;-62
2024/01/10 03:46:17;;;;;;;;;;;-1.90;95.80;;;;;;5003774;28;19937;-62
2024/01/10 03:48:50;;;;;;;;;;;-2.00;95.70;;;;;;5021640;28;19914;-63
2024/01/10 03:51:17;;;;;;;;;;;-1.90;95.80;;;;;;5013637;28;19921;-62
2024/01/10 03:53:42;;;;;;;;;;;-1.90;95.80;;;;;;5021477;28;19917;-62
2024/01/10 03:56:08;;;;;;;;;;;-2.00;95.70;;;;;;5021227;28;19931;-62
2024/01/10 03:58:33;;;;;;;;;;;-2.00;95.80;;;;;;5021141;28;20019;-62
2024/01/10 04:00:59;;;;;;;;;;;-2.00;95.80;;;;;;5020822;28;20440;-62
2024/01/10 04:03:25;;;;;;;;;;;-2.00;95.80;;;;;;5023412;28;19913;-62
2024/01/10 04:05:50;;;;;;;;;;;-2.00;95.80;;;;;;5024564;28;19909;-62
2024/01/10 04:08:16;;;;;;;;;;;-2.00;95.80;;;;;;5023842;28;20008;-62
2024/01/10 04:10:41;;;;;;;;;;;-2.00;95.80;;;;;;5024340;28;19924;-62
2024/01/10 04:13:07;;;;;;;;;;;-2.00;95.80;;;;;;5032938;28;20365;-62
2024/01/10 04:15:32;;;;;;;;;;;-2.00;95.70;;;;;;5034777;28;19912;-63
2024/01/10 04:17:58;;;;;;;;;;;-2.00;95.80;;;;;;5031910;28;20061;-62
2024/01/10 04:20:23;;;;;;;;;;;-2.00;95.80;;;;;;5014580;28;20412;-62
2024/01/10 04:22:48;;;;;;;;;;;-2.00;95.80;;;;;;5032445;28;19913;-62
2024/01/10 04:25:14;;;;;;;;;;;-2.00;95.70;;;;;;5024208;28;19913;-62
2024/01/10 04:27:39;;;;;;;;;;;-2.00;95.70;;;;;;5024553;28;20370;-63
2024/01/10 04:30:05;;;;;;;;;;;-2.00;95.70;;;;;;5023610;28;19967;-62
2024/01/10 04:32:31;;;;;;;;;;;-2.10;95.70;;;;;;5031498;28;19917;-62
2024/01/10 04:34:56;;;;;;;;;;;-2.10;95.70;;;;;;5024046;28;20032;-63
2024/01/10 04:37:22;;;;;;;;;;;-2.10;95.70;;;;;;5025632;28;19925;-62
2024/01/10 04:39:47;;;;;;;;;;;-2.10;95.60;;;;;;5028259;28;19973;-62
2024/01/10 04:42:13;;;;;;;;;;;-2.10;95.70;;;;;;5023541;28;19909;-63
2024/01/10 04:44:38;;;;;;;;;;;-2.10;95.60;;;;;;5023941;28;20028;-62
2024/01/10 04:47:04;;;;;;;;;;;-2.10;95.60;;;;;;5011518;28;19940;-62
2024/01/10 04:49:30;;;;;;;;;;;-2.10;95.60;;;;;;5020840;28;19918;-62
2024/01/10 04:51:55;;;;;;;;;;;-2.10;95.50;;;;;;5026069;28;19913;-62
2024/01/10 04:54:21;;;;;;;;;;;-2.10;95.50;;;;;;5032586;28;19919;-62
2024/01/10 04:56:46;;;;;;;;;;;-2.10;95.50;;;;;;5023415;28;19917;-62
2024/01/10 04:59:12;;;;;;;;;;;-2.10;95.50;;;;;;5023092;28;19955;-62
2024/01/10 05:01:38;;;;;;;;;;;-2.10;95.50;;;;;;5023289;28;19909;-62
2024/01/10 05:04:03;;;;;;;;;;;-2.20;95.50;;;;;;5025857;28;19909;-62
2024/01/10 05:06:29;;;;;;;;;;;-2.20;95.50;;;;;;5015319;28;19917;-62
2024/01/10 05:08:57;;;;;;;;;;;-2.20;95.60;;;;;;5023317;28;20211;-62
2024/01/10 05:11:24;;;;;;;;;;;-2.20;95.60;;;;;;5033488;28;19917;-62
2024/01/10 05:13:49;;;;;;;;;;;-2.20;95.60;;;;;;5028345;28;20054;-62
2024/01/10 05:16:15;;;;;;;;;;;-2.20;95.50;;;;;;5022757;28;19917;-63
2024/01/10 05:18:40;;;;;;;;;;;-2.20;95.60;;;;;;5023264;28;19974;-62
2024/01/10 05:21:06;;;;;;;;;;;-2.20;95.50;;;;;;5012939;28;19923;-62
2024/01/10 05:23:32;;;;;;;;;;;-2.20;95.50;;;;;;5026789;28;19917;-63
2024/01/10 05:25:57;;;;;;;;;;;-2.20;95.50;;;;;;5034762;28;19965;-62
2024/01/10 05:28:23;;;;;;;;;;;-2.20;95.50;;;;;;5023759;28;19934;-63
2024/01/10 05:30:48;;;;;;;;;;;-2.20;95.40;;;;;;5022168;28;20578;-62
2024/01/10 05:33:14;;;;;;;;;;;-2.20;95.40;;;;;;5030076;28;19947;-62
2024/01/10 05:35:39;;;;;;;;;;;-2.20;95.40;;;;;;5022343;28;20344;-62
2024/01/10 05:38:05;;;;;;;;;;;-2.20;95.40;;;;;;5029758;28;19924;-62
2024/01/10 05:40:31;;;;;;;;;;;-2.20;95.50;;;;;;5021838;28;19917;-62
2024/01/10 05:42:59;;;;;;;;;;;-2.20;95.40;;;;;;5021905;28;19938;-62
2024/01/10 05:45:25;;;;;;;;;;;-2.20;95.40;;;;;;5021547;28;19975;-62
2024/01/10 05:47:50;;;;;;;;;;;-2.20;95.40;;;;;;5037452;28;20620;-62
2024/01/10 05:50:16;;;;;;;;;;;-2.20;95.40;;;;;;5021702;28;19963;-62
2024/01/10 05:52:42;;;;;;;;;;;-2.30;95.40;;;;;;5022560;28;20274;-62
2024/01/10 05:55:08;;;;;;;;;;;-2.30;95.40;;;;;;5022170;28;20284;-63
2024/01/10 05:57:34;;;;;;;;;;;-2.30;95.40;;;;;;5022493;28;19925;-62
2024/01/10 06:00:00;;;;;;;;;;;-2.30;95.40;;;;;;5016575;28;20054;-62
2024/01/10 06:02:26;;;;;;;;;;;-2.30;95.40;;;;;;5038112;28;19913;-63
2024/01/10 06:04:52;;;;;;;;;;;-2.30;95.40;;;;;;5016863;28;20000;-62
2024/01/10 06:07:18;;;;;;;;;;;-2.30;95.40;;;;;;5023653;28;20020;-62
2024/01/10 06:09:43;;;;;;;;;;;-2.30;95.40;;;;;;5041998;28;19916;-62
2024/01/10 06:12:09;;;;;;;;;;;-2.30;95.40;;;;;;5032602;28;19961;-63
2024/01/10 06:14:35;;;;;;;;;;;-2.30;95.40;;;;;;5026456;28;20265;-62
2024/01/10 06:17:03;;;;;;;;;;;-2.30;95.70;;;;;;5012531;28;19917;-62
2024/01/10 06:19:32;;;;;;;;;;;-2.30;95.40;;;;;;5029977;28;20371;-62
2024/01/10 06:21:58;;;;;;;;;;;-2.30;95.40;;;;;;5021554;28;19953;-62
2024/01/10 06:24:23;;;;;;;;;;;-2.30;95.40;;;;;;5023560;28;19913;-62
2024/01/10 06:26:52;;;;;;;;;;;-2.30;95.40;;;;;;5026974;28;19909;-62
2024/01/10 06:29:18;;;;;;;;;;;-2.30;95.40;;;;;;5014150;28;19921;-62
2024/01/10 06:31:43;;;;;;;;;;;-2.30;95.40;;;;;;5029910;28;19916;-62
2024/01/10 06:34:09;;;;;;;;;;;-2.30;95.40;;;;;;5032680;28;19908;-62
2024/01/10 06:36:34;;;;;;;;;;;-2.30;95.40;;;;;;5030307;28;19951;-62
2024/01/10 06:39:00;;;;;;;;;;;-2.30;95.40;;;;;;5030629;28;19913;-62
2024/01/10 06:41:26;;;;;;;;;;;-2.30;95.40;;;;;;5029847;28;20036;-62
2024/01/10 06:43:52;;;;;;;;;;;-2.30;95.30;;;;;;5022175;28;19913;-62
2024/01/10 06:46:17;;;;;;;;;;;-2.30;95.40;;;;;;5021977;28;19914;-62
2024/01/10 06:48:43;;;;;;;;;;;-2.30;95.40;;;;;;5022630;28;19909;-62
2024/01/10 06:51:14;;;;;;;;;;;-2.30;95.40;;;;;;5015761;28;20401;-62
2024/01/10 06:53:40;;;;;;;;;;;-2.30;95.40;;;;;;5034433;28;19913;-62
2024/01/10 06:56:07;;;;;;;;;;;-2.30;95.30;;;;;;5021372;28;19920;-62
2024/01/10 06:58:32;;;;;;;;;;;-2.30;95.40;;;;;;5033432;28;19985;-62
2024/01/10 07:01:00;;;;;;;;;;;-2.30;95.40;;;;;;5025985;28;20541;-62
2024/01/10 07:03:26;;;;;;;;;;;-2.30;95.40;;;;;;5021598;28;19917;-62
2024/01/10 07:05:51;;;;;;;;;;;-2.30;95.30;;;;;;5027720;28;19913;-62
2024/01/10 07:08:17;;;;;;;;;;;-2.30;95.40;;;;;;5023573;28;19913;-62
2024/01/10 07:10:42;;;;;;;;;;;-2.30;95.30;;;;;;5030018;28;19909;-62
2024/01/10 07:13:08;;;;;;;;;;;-2.30;95.30;;;;;;5021550;28;19944;-62
2024/01/10 07:15:33;;;;;;;;;;;-2.30;95.30;;;;;;5024430;28;19912;-62
2024/01/10 07:17:59;;;;;;;;;;;-2.30;95.30;;;;;;5029940;28;19932;-62
2024/01/10 07:20:24;;;;;;;;;;;-2.30;95.30;;;;;;5021188;28;20568;-62
2024/01/10 07:22:51;;;;;;;;;;;-2.30;95.30;;;;;;5021611;28;20005;-62
2024/01/10 07:25:17;;;;;;;;;;;-2.30;95.30;;;;;;5029509;28;20600;-62
2024/01/10 07:27:45;;;;;;;;;;;-2.30;95.30;;;;;;5026814;28;19916;-62
2024/01/10 07:30:13;;;;;;;;;;;-2.30;95.30;;;;;;5023605;28;19928;-62
2024/01/10 07:32:40;;;;;;;;;;;-2.40;95.30;;;;;;5021645;28;19913;-62
2024/01/10 07:35:09;;;;;;;;;;;-2.30;95.30;;;;;;5021538;28;19913;-62
2024/01/10 07:37:35;;;;;;;;;;;-2.30;95.30;;;;;;5036758;28;19917;-62
2024/01/10 07:40:01;;;;;;;;;;;-2.30;95.30;;;;;;5044616;28;20456;-62
2024/01/10 07:42:26;;;;;;;;;;;-2.40;95.20;;;;;;5025268;28;19942;-62
2024/01/10 07:44:53;;;;;;;;;;;-2.30;95.30;;;;;;5033211;28;19923;-62
2024/01/10 07:47:19;;;;;;;;;;;-2.30;95.30;;;;;;5028642;28;20331;-62
2024/01/10 07:49:45;;;;;;;;;;;-2.30;95.30;;;;;;5030957;28;20004;-62
2024/01/10 07:52:10;;;;;;;;;;;-2.30;95.30;;;;;;5024220;28;20342;-62
2024/01/10 07:54:36;;;;;;;;;;;-2.30;95.30;;;;;;5024566;28;19913;-62
2024/01/10 07:57:02;;;;;;;;;;;-2.30;95.30;;;;;;5023256;28;20429;-62
2024/01/10 07:59:27;;;;;;;;;;;-2.30;95.50;;;;;;5006462;28;19924;-62
2024/01/10 08:01:56;;;;;;;;;;;-2.30;95.30;;;;;;5024205;28;19931;-62
2024/01/10 08:04:22;;;;;;;;;;;-2.30;95.30;;;;;;5032481;28;19918;-62
2024/01/10 08:06:48;;;;;;;;;;;-2.30;95.30;;;;;;5024449;28;20265;-62
2024/01/10 08:09:14;;;;;;;;;;;-2.30;95.30;;;;;;5024188;28;19917;-62
2024/01/10 08:11:40;;;;;;;;;;;-2.30;95.30;;;;;;5024322;28;19913;-62
2024/01/10 08:14:05;;;;;;;;;;;-2.30;95.30;;;;;;5024416;28;19913;-62
2024/01/10 08:16:32;;;;;;;;;;;-2.30;95.40;;;;;;5023860;28;20365;-62
2024/01/10 08:18:58;;;;;;;;;;;-2.30;95.40;;;;;;5006493;28;20233;-62
2024/01/10 08:21:25;;;;;;;;;;;-2.30;95.40;;;;;;5023569;28;19948;-62
2024/01/10 08:23:50;;;;;;;;;;;-2.30;95.30;;;;;;5024198;28;19914;-62
2024/01/10 08:26:16;;;;;;;;;;;-2.30;95.30;;;;;;5039208;28;20000;-62
2024/01/10 08:28:42;;;;;;;;;;;-2.30;95.30;;;;;;5024177;28;19917;-62
2024/01/10 08:31:08;;;;;;;;;;;-2.30;95.30;;;;;;5023713;28;19913;-62
2024/01/10 08:33:33;;;;;;;;;;;-2.30;95.40;;;;;;5024167;28;19971;-62
2024/01/10 08:35:59;;;;;;;;;;;-2.30;95.40;;;;;;5023996;28;19986;-62
2024/01/10 08:38:24;;;;;;;;;;;-2.30;95.30;;;;;;5023439;28;20068;-62
2024/01/10 08:40:50;;;;;;;;;;;-2.30;95.30;;;;;;5024184;28;19920;-62
2024/01/10 08:43:17;;;;;;;;;;;-2.20;95.40;;;;;;5023214;28;19913;-62
2024/01/10 08:45:43;;;;;;;;;;;-2.20;95.40;;;;;;5023698;28;19914;-62
2024/01/10 08:48:10;;;;;;;;;;;-2.20;95.40;;;;;;5023363;28;19916;-62
2024/01/10 08:50:36;;;;;;;;;;;-2.20;95.40;;;;;;5023728;28;20421;-62
2024/01/10 08:53:04;;;;;;;;;;;-2.20;95.40;;;;;;5031540;28;19923;-62
2024/01/10 08:55:31;;;;;;;;;;;-2.20;95.40;;;;;;5035360;28;20377;-62
2024/01/10 08:57:57;;;;;;;;;;;-2.10;95.40;;;;;;5016550;28;20056;-62
2024/01/10 09:00:24;;;;;;;;;;;-2.10;95.40;;;;;;5034632;28;19937;-62
2024/01/10 09:02:50;;;;;;;;;;;-2.10;95.30;;;;;;5029405;28;19918;-62
2024/01/10 09:05:15;;;;;;;;;;;-2.10;95.40;;;;;;5023232;28;19949;-62
2024/01/10 09:07:42;;;;;;;;;;;-2.10;95.40;;;;;;5031760;28;20012;-62
2024/01/10 09:10:08;;;;;;;;;;;-2.10;95.40;;;;;;5024646;28;19963;-62
2024/01/10 09:12:33;;;;;;;;;;;-2.10;95.40;;;;;;5023281;28;19949;-62
2024/01/10 09:14:59;;;;;;;;;;;-2.10;95.40;;;;;;5023478;28;19913;-62
2024/01/10 09:17:24;;;;;;;;;;;-2.10;95.40;;;;;;5025068;28;19970;-62
2024/01/10 09:19:50;;;;;;;;;;;-2.10;95.50;;;;;;5031403;28;19938;-62
2024/01/10 09:22:16;;;;;;;;;;;-2.10;95.50;;;;;;5040524;28;19913;-62
2024/01/10 09:24:41;;;;;;;;;;;-2.00;95.50;;;;;;5043171;28;19992;-62
2024/01/10 09:27:07;;;;;;;;;;;-2.10;95.50;;;;;;5034940;28;19982;-62
2024/01/10 09:29:34;;;;;;;;;;;-2.10;95.60;;;;;;5014844;28;20012;-62
2024/01/10 09:31:59;;;;;;;;;;;-2.10;95.60;;;;;;5004718;28;19982;-62
2024/01/10 09:34:25;;;;;;;;;;;-2.10;95.70;;;;;;5004548;28;19913;-62
2024/01/10 09:36:52;;;;;;;;;;;-2.00;95.70;;;;;;5022557;28;19917;-62
2024/01/10 09:39:17;;;;;;;;;;;-2.00;95.70;;;;;;5030569;28;20369;-62
2024/01/10 09:41:47;;;;;;;;;;;-2.10;95.70;;;;;;5022502;28;19961;-62
2024/01/10 09:44:12;;;;;;;;;;;-2.00;95.70;;;;;;5022106;28;19913;-62
2024/01/10 09:46:40;;;;;;;;;;;-2.00;95.80;;;;;;5021867;28;20380;-62
2024/01/10 09:49:05;;;;;;;;;;;-2.00;95.80;;;;;;5022185;28;20454;-62
2024/01/10 09:51:33;;;;;;;;;;;-2.00;95.80;;;;;;5021428;28;19917;-62
2024/01/10 09:54:00;;;;;;;;;;;-2.00;95.80;;;;;;5021803;28;19913;-62
2024/01/10 09:56:25;;;;;;;;;;;-2.00;95.80;;;;;;5021892;28;19963;-62
2024/01/10 09:58:53;;;;;;;;;;;-1.90;95.90;;;;;;5021641;28;19948;-62
2024/01/10 10:01:19;;;;;;;;;;;-2.00;95.90;;;;;;5036615;28;20034;-62
2024/01/10 10:03:46;;;;;;;;;;;-1.90;95.90;;;;;;5022687;28;20226;-62
2024/01/10 10:06:11;;;;;;;;;;;-1.90;95.90;;;;;;5022450;28;19977;-62
2024/01/10 10:08:38;;;;;;;;;;;-1.90;95.90;;;;;;5030723;28;19917;-62
2024/01/10 10:11:03;;;;;;;;;;;-1.90;95.90;;;;;;5030640;28;19913;-62
2024/01/10 10:13:29;;;;;;;;;;;-1.90;95.90;;;;;;5033292;28;19913;-62
2024/01/10 10:15:59;;;;;;;;;;;-1.80;95.90;;;;;;5038091;28;19959;-62
2024/01/10 10:18:25;;;;;;;;;;;-1.80;95.90;;;;;;5017770;28;20397;-62
2024/01/10 10:21:05;;;;;;;;;;;-1.80;95.90;;;;;;4998655;28;19934;-62
2024/01/10 10:23:31;;;;;;;;;;;-1.80;95.90;;;;;;5028696;28;20028;-62
2024/01/10 10:25:56;;;;;;;;;;;-1.70;95.90;;;;;;5022164;28;20088;-62
2024/01/10 10:28:28;;;;;;;;;;;-1.80;95.90;;;;;;5020853;28;19952;-62
2024/01/10 10:30:54;;;;;;;;;;;-1.80;96.00;;;;;;5021873;28;19924;-62
2024/01/10 10:33:21;;;;;;;;;;;-1.70;96.00;;;;;;5021548;28;19909;-62
2024/01/10 10:35:46;;;;;;;;;;;-1.70;96.00;;;;;;5027196;28;19920;-62
2024/01/10 10:38:12;;;;;;;;;;;-1.70;96.20;;;;;;5041468;28;19924;-62
2024/01/10 10:40:38;;;;;;;;;;;-1.70;96.00;;;;;;5026406;28;19924;-62
2024/01/10 10:43:03;;;;;;;;;;;-1.70;96.00;;;;;;5034060;28;19909;-62
2024/01/10 10:45:31;;;;;;;;;;;-1.60;96.00;;;;;;5029785;28;20654;-62
2024/01/10 10:47:57;;;;;;;;;;;-1.60;96.00;;;;;;5030048;28;19913;-62
2024/01/10 10:50:23;;;;;;;;;;;-1.60;96.00;;;;;;5021427;28;19925;-62
2024/01/10 10:52:49;;;;;;;;;;;-1.60;96.00;;;;;;5009329;28;19996;-62
2024/01/10 10:55:18;;;;;;;;;;;-1.50;96.10;;;;;;5025155;28;19999;-62
2024/01/10 10:57:45;;;;;;;;;;;-1.50;96.00;;;;;;5028794;28;20685;-62
2024/01/10 11:00:15;;;;;;;;;;;-1.50;96.00;;;;;;5025241;28;19924;-62
2024/01/10 11:02:41;;;;;;;;;;;-1.40;96.00;;;;;;5015905;28;19913;-62
2024/01/10 11:05:07;;;;;;;;;;;-1.40;96.00;;;;;;5033753;28;19941;-62
2024/01/10 11:07:35;;;;;;;;;;;-1.40;96.00;;;;;;5032488;28;20026;-62
2024/01/10 11:10:02;;;;;;;;;;;-1.50;96.10;;;;;;5034184;28;19913;-62
2024/01/10 11:12:38;;;;;;;;;;;-1.50;96.10;;;;;;5024334;28;19913;-62
2024/01/10 11:15:10;;;;;;;;;;;-1.40;96.20;;;;;;5024882;28;20032;-62
2024/01/10 11:17:45;;;;;;;;;;;-1.40;96.10;;;;;;5026958;28;19956;-62
2024/01/10 11:20:14;;;;;;;;;;;-1.30;96.10;;;;;;5027977;28;19913;-62
2024/01/10 11:22:39;;;;;;;;;;;-1.40;95.90;;;;;;5032312;28;20373;-62
2024/01/10 11:25:05;;;;;;;;;;;-1.40;96.00;;;;;;5025198;28;20005;-62
2024/01/10 11:27:30;;;;;;;;;;;-1.30;96.10;;;;;;5024540;28;19913;-62
2024/01/10 11:29:58;;;;;;;;;;;-1.30;96.10;;;;;;5039590;28;19978;-62
2024/01/10 11:32:24;;;;;;;;;;;-1.30;96.00;;;;;;5032458;28;19939;-62
2024/01/10 11:35:11;;;;;;;;;;;-1.30;96.10;;;;;;5038420;28;20403;-62
2024/01/10 11:37:43;;;;;;;;;;;-1.20;96.10;;;;;;5028544;28;19917;-62
2024/01/10 11:40:09;;;;;;;;;;;-1.20;96.10;;;;;;5023031;28;20398;-62
2024/01/10 11:42:44;;;;;;;;;;;-1.20;96.10;;;;;;5016570;28;19913;-62
2024/01/10 11:45:10;;;;;;;;;;;-1.20;96.10;;;;;;5032742;28;20613;-62
2024/01/10 11:47:40;;;;;;;;;;;-1.20;96.10;;;;;;5024294;28;19959;-62
2024/01/10 11:50:07;;;;;;;;;;;-1.20;96.10;;;;;;5016521;28;19917;-62
2024/01/10 11:52:34;;;;;;;;;;;-1.10;96.10;;;;;;5031850;28;20415;-62
2024/01/10 11:55:03;;;;;;;;;;;-1.10;96.10;;;;;;5024090;28;19916;-62
2024/01/10 11:57:29;;;;;;;;;;;-1.10;96.10;;;;;;5014591;28;20008;-62
2024/01/10 11:59:55;;;;;;;;;;;-1.10;96.10;;;;;;5037031;28;19919;-62
2024/01/10 12:02:22;;;;;;;;;;;-1.10;96.10;;;;;;5032261;28;19916;-62
2024/01/10 12:04:48;;;;;;;;;;;-1.10;96.10;;;;;;5030123;28;19912;-62
2024/01/10 12:07:14;;;;;;;;;;;-1.10;96.20;;;;;;5035809;28;19932;-62
2024/01/10 12:09:39;;;;;;;;;;;-1.00;96.20;;;;;;5036375;28;20001;-62
2024/01/10 12:12:05;;;;;;;;;;;-1.00;96.30;;;;;;5036457;28;19973;-62
2024/01/10 12:14:31;;;;;;;;;;;-1.00;96.20;;;;;;5024052;28;20515;-62
2024/01/10 12:16:57;;;;;;;;;;;-1.00;96.20;;;;;;5023873;28;19917;-62
2024/01/10 12:19:22;;;;;;;;;;;-1.00;96.30;;;;;;5032156;28;20454;-62
2024/01/10 12:21:48;;;;;;;;;;;-1.00;96.30;;;;;;5028871;28;19909;-62
2024/01/10 12:24:14;;;;;;;;;;;-0.90;96.40;;;;;;5034753;28;19909;-62
2024/01/10 12:26:46;;;;;;;;;;;-0.90;96.40;;;;;;5035729;28;19909;-62
2024/01/10 12:29:12;;;;;;;;;;;-0.90;96.30;;;;;;5026596;28;20023;-62
2024/01/10 12:31:38;;;;;;;;;;;-0.80;96.30;;;;;;5005453;28;19914;-62
2024/01/10 12:34:06;;;;;;;;;;;-0.90;96.30;;;;;;5030432;28;19920;-62
2024/01/10 12:36:32;;;;;;;;;;;-0.90;96.40;;;;;;5031892;28;20024;-62
2024/01/10 12:38:57;;;;;;;;;;;-0.90;96.40;;;;;;5032145;28;20042;-62
2024/01/10 12:41:23;;;;;;;;;;;-0.90;96.50;;;;;;5039716;28;19956;-62
2024/01/10 12:43:50;;;;;;;;;;;-0.90;96.50;;;;;;5023520;28;20012;-62
2024/01/10 12:46:16;;;;;;;;;;;-0.80;96.60;;;;;;5032027;28;19913;-62
2024/01/10 12:48:42;;;;;;;;;;;-0.80;96.60;;;;;;5030748;28;20652;-62
2024/01/10 12:51:08;;;;;;;;;;;-0.80;96.60;;;;;;5022947;28;19924;-62
2024/01/10 12:53:37;;;;;;;;;;;-0.80;96.70;;;;;;5031307;28;19920;-62
2024/01/10 12:56:03;;;;;;;;;;;-0.80;96.70;;;;;;5032026;28;20096;-62
2024/01/10 12:58:29;;;;;;;;;;;-0.80;96.70;;;;;;5032928;28;19914;-62
2024/01/10 13:00:55;;;;;;;;;;;-0.80;96.70;;;;;;5029507;28;19909;-62
2024/01/10 13:03:21;;;;;;;;;;;-0.80;96.70;;;;;;5031776;28;20098;-62
2024/01/10 13:05:46;;;;;;;;;;;-0.70;96.70;;;;;;5036907;28;20003;-62
2024/01/10 13:08:12;;;;;;;;;;;-0.70;96.70;;;;;;5035004;28;20010;-62
2024/01/10 13:10:38;;;;;;;;;;;-0.70;96.80;;;;;;5036434;28;20008;-62
2024/01/10 13:13:03;;;;;;;;;;;-0.70;96.80;;;;;;5030973;28;19916;-62
2024/01/10 13:15:29;;;;;;;;;;;-0.70;96.80;;;;;;5023598;28;19912;-62
2024/01/10 13:17:55;;;;;;;;;;;-0.70;96.80;;;;;;5031844;28;19968;-62
2024/01/10 13:20:21;;;;;;;;;;;-0.70;97.10;;;;;;5031088;28;19913;-62
2024/01/10 13:22:46;;;;;;;;;;;-0.70;96.80;;;;;;5023473;28;20630;-62
2024/01/10 13:25:12;;;;;;;;;;;-0.70;96.90;;;;;;5023249;28;19913;-62
2024/01/10 13:27:38;;;;;;;;;;;-0.70;96.90;;;;;;5031502;28;19913;-62
2024/01/10 13:30:05;;;;;;;;;;;-0.60;96.90;;;;;;5009407;28;19917;-62
2024/01/10 13:32:31;;;;;;;;;;;-0.70;96.90;;;;;;5033478;28;19959;-62
2024/01/10 13:34:57;;;;;;;;;;;-0.60;96.80;;;;;;5024897;28;20055;-62
2024/01/10 13:37:22;;;;;;;;;;;-0.70;96.90;;;;;;5024397;28;19921;-62
2024/01/10 13:39:51;;;;;;;;;;;-0.60;96.90;;;;;;5032195;28;20216;-62
2024/01/10 13:42:17;;;;;;;;;;;-0.60;96.90;;;;;;5020138;28;20079;-62
2024/01/10 13:44:42;;;;;;;;;;;-0.60;96.90;;;;;;5022288;28;20004;-62
2024/01/10 13:47:08;;;;;;;;;;;-0.60;96.90;;;;;;5011806;28;19913;-62
2024/01/10 13:49:33;;;;;;;;;;;-0.60;96.90;;;;;;5021588;28;19913;-62
2024/01/10 13:51:59;;;;;;;;;;;-0.60;96.90;;;;;;5027849;28;19992;-62
2024/01/10 13:54:24;;;;;;;;;;;-0.60;96.90;;;;;;5013130;28;19959;-62
2024/01/10 13:56:49;;;;;;;;;;;-0.60;96.80;;;;;;5021751;28;19916;-62
2024/01/10 13:59:15;;;;;;;;;;;-0.60;96.90;;;;;;5021508;28;19917;-62
2024/01/10 14:01:41;;;;;;;;;;;-0.60;96.90;;;;;;5024524;28;20644;-62
2024/01/10 14:04:06;;;;;;;;;;;-0.60;96.90;;;;;;5021426;28;19913;-62
2024/01/10 14:06:32;;;;;;;;;;;-0.60;96.90;;;;;;5021724;28;20589;-62
2024/01/10 14:08:58;;;;;;;;;;;-0.60;96.90;;;;;;5029654;28;19999;-62